Superferry II — SWKV — position and weather

sailwx.info

Track history (hours):
 
Tides and Currents Weather Stations Pressure Air Temp Water Temp Dewpoint Dewpoint Depression Visibility Wind Speed Wind Dir Waves Ship Positions

Superferry II

Last reported at 2014-Nov-28 16:31 UTC. Time now 2014-Nov-29 05:06 UTC.
Position N 38°01' E 024°01'.

Length 122 m; draft 4.7 m.

Type: Passenger vessel. MMSI: 237001000.

Date/timePositionNaut miles runAvg speedWind from/ knotsBaromVisibWave heightAir tempDewpointWater temp
2014-Nov-28 16:31N 38°01' E 024°01'2018.1
2014-Nov-28 15:26N 37°56' E 024°25'2513.2
2014-Nov-28 13:33N 37°44' E 024°52'1818.0
2014-Nov-28 12:33N 37°32' E 025°09'9 9.1
2014-Nov-28 11:33N 37°28' E 025°19'5 4.9
2014-Nov-28 10:34N 37°30' E 025°14'1111.3
2014-Nov-28 09:33N 37°36' E 025°02'4815.3
2014-Nov-28 06:26N 37°59' E 024°09'7 2.2
2014-Nov-28 03:25N 38°01' E 024°01'0 0.0
2014-Nov-28 02:32N 38°01' E 024°01'0 0.0
2014-Nov-27 23:16N 38°01' E 024°01'0 0.0
2014-Nov-27 22:27N 38°01' E 024°01'0 0.0
2014-Nov-27 21:33N 38°01' E 024°01'0 0.0
2014-Nov-27 20:27N 38°01' E 024°01'0 0.0
2014-Nov-27 19:29N 38°01' E 024°01'0 0.0
2014-Nov-27 18:34N 38°01' E 024°01'0 0.0
2014-Nov-27 17:30N 38°01' E 024°01'0 0.0
2014-Nov-27 09:13N 38°01' E 024°01'2 0.1
2014-Nov-26 16:33N 38°01' E 024°03'2218.2
2014-Nov-26 15:20N 37°54' E 024°30'2412.7
2014-Nov-26 13:25N 37°41' E 024°56'1416.0
2014-Nov-26 12:33N 37°32' E 025°09'9 9.1
2014-Nov-26 11:33N 37°28' E 025°19'2 2.0
2014-Nov-26 10:33N 37°28' E 025°17'1111.4
2014-Nov-26 09:33N 37°34' E 025°05'4815.5
2014-Nov-26 06:29N 37°59' E 024°13'8 0.6
2014-Nov-25 16:30N 38°01' E 024°03'2218.2
2014-Nov-25 15:17N 37°55' E 024°30'2413.1
2014-Nov-25 13:27N 37°41' E 024°55'1516.3
2014-Nov-25 12:33N 37°32' E 025°09'9 9.2
2014-Nov-25 11:33N 37°28' E 025°20'0 0.0
2014-Nov-25 10:33N 37°28' E 025°20'1312.9
2014-Nov-25 09:33N 37°34' E 025°05'4815.6
2014-Nov-25 06:27N 37°58' E 024°13'9 0.6
2014-Nov-24 16:32N 38°01' E 024°02'4915.0
2014-Nov-24 13:18N 37°40' E 024°57'1216.5
2014-Nov-24 12:33N 37°32' E 025°09'9 9.1
2014-Nov-24 11:33N 37°28' E 025°19'0 0.0
2014-Nov-24 10:33N 37°28' E 025°19'1312.8
2014-Nov-24 09:33N 37°34' E 025°05'4715.6
2014-Nov-24 06:33N 37°58' E 024°14'40 2.3
2014-Nov-23 13:13N 37°39' E 024°58'1116.6
2014-Nov-23 12:33N 37°32' E 025°09'9 9.0
2014-Nov-23 11:32N 37°28' E 025°19'0 0.1
2014-Nov-23 10:33N 37°28' E 025°19'1413.4
2014-Nov-23 09:29N 37°35' E 025°04'4615.7
2014-Nov-23 06:32N 37°58' E 024°13'10 2.3
2014-Nov-23 02:05N 38°01' E 024°01'0 0.0
2014-Nov-23 01:30N 38°01' E 024°01'0 0.0
2014-Nov-22 16:28N 38°01' E 024°01'2318.2
2014-Nov-22 15:14N 37°55' E 024°28'2213.2
2014-Nov-22 13:33N 37°43' E 024°52'1717.5
2014-Nov-22 12:34N 37°32' E 025°09'9 9.1
2014-Nov-22 11:33N 37°28' E 025°19'0 0.1
2014-Nov-22 10:34N 37°28' E 025°19'1413.8
2014-Nov-22 09:33N 37°34' E 025°04'4715.3
2014-Nov-22 06:31N 37°58' E 024°13'9 0.6
2014-Nov-21 16:29N 38°01' E 024°02'2318.7
2014-Nov-21 15:15N 37°54' E 024°31'2313.4
2014-Nov-21 13:29N 37°41' E 024°55'1415.2
2014-Nov-21 12:33N 37°32' E 025°09'9 9.1
2014-Nov-21 11:34N 37°28' E 025°19'2 2.4
2014-Nov-21 10:33N 37°29' E 025°17'1010.5
2014-Nov-21 09:33N 37°34' E 025°05'4715.5
2014-Nov-21 06:32N 37°58' E 024°14'10 0.7
2014-Nov-20 16:30N 38°01' E 024°02'1918.3
2014-Nov-20 15:28N 37°56' E 024°25'2713.5
2014-Nov-20 13:27N 37°42' E 024°54'1516.9
2014-Nov-20 12:33N 37°32' E 025°09'9 9.1
2014-Nov-20 11:33N 37°28' E 025°19'0 0.0
2014-Nov-20 10:33N 37°28' E 025°19'1211.9
2014-Nov-20 09:33N 37°33' E 025°06'58 3.4
2014-Nov-19 16:34N 38°01' E 024°02'1917.9
2014-Nov-19 15:31N 37°55' E 024°25'2613.2
2014-Nov-19 13:32N 37°43' E 024°54'1616.5
2014-Nov-19 12:33N 37°32' E 025°09'9 9.1
2014-Nov-19 11:33N 37°28' E 025°19'0 0.0
2014-Nov-19 10:33N 37°28' E 025°19'1313.1
2014-Nov-19 09:33N 37°34' E 025°05'5215.7
2014-Nov-19 06:14N 37°60' E 024°07'3 0.2
2014-Nov-18 16:32N 38°01' E 024°04'  
Track history (hours):
 
Tides and Currents Weather Stations Pressure Air Temp Water Temp Dewpoint Dewpoint Depression Visibility Wind Speed Wind Dir Waves Ship Positions

Superferry II

Last reported at 2014-Nov-28 16:31 UTC. Time now 2014-Nov-29 05:06 UTC.
Position N 38°01' E 024°01'.

Length 122 m; draft 4.7 m.

Type: Passenger vessel. MMSI: 237001000.

Date/timePositionNaut miles runAvg speedWind from/ knotsBaromVisibWave heightAir tempDewpointWater temp
2014-Nov-28 16:31N 38°01' E 024°01'2018.1
2014-Nov-28 15:26N 37°56' E 024°25'2513.2
2014-Nov-28 13:33N 37°44' E 024°52'1818.0
2014-Nov-28 12:33N 37°32' E 025°09'9 9.1
2014-Nov-28 11:33N 37°28' E 025°19'5 4.9
2014-Nov-28 10:34N 37°30' E 025°14'1111.3
2014-Nov-28 09:33N 37°36' E 025°02'4815.3
2014-Nov-28 06:26N 37°59' E 024°09'7 2.2
2014-Nov-28 03:25N 38°01' E 024°01'0 0.0
2014-Nov-28 02:32N 38°01' E 024°01'0 0.0
2014-Nov-27 23:16N 38°01' E 024°01'0 0.0
2014-Nov-27 22:27N 38°01' E 024°01'0 0.0
2014-Nov-27 21:33N 38°01' E 024°01'0 0.0
2014-Nov-27 20:27N 38°01' E 024°01'0 0.0
2014-Nov-27 19:29N 38°01' E 024°01'0 0.0
2014-Nov-27 18:34N 38°01' E 024°01'0 0.0
2014-Nov-27 17:30N 38°01' E 024°01'0 0.0
2014-Nov-27 09:13N 38°01' E 024°01'2 0.1
2014-Nov-26 16:33N 38°01' E 024°03'2218.2
2014-Nov-26 15:20N 37°54' E 024°30'2412.7
2014-Nov-26 13:25N 37°41' E 024°56'1416.0
2014-Nov-26 12:33N 37°32' E 025°09'9 9.1
2014-Nov-26 11:33N 37°28' E 025°19'2 2.0
2014-Nov-26 10:33N 37°28' E 025°17'1111.4
2014-Nov-26 09:33N 37°34' E 025°05'4815.5
2014-Nov-26 06:29N 37°59' E 024°13'8 0.6
2014-Nov-25 16:30N 38°01' E 024°03'2218.2
2014-Nov-25 15:17N 37°55' E 024°30'2413.1
2014-Nov-25 13:27N 37°41' E 024°55'1516.3
2014-Nov-25 12:33N 37°32' E 025°09'9 9.2
2014-Nov-25 11:33N 37°28' E 025°20'0 0.0
2014-Nov-25 10:33N 37°28' E 025°20'1312.9
2014-Nov-25 09:33N 37°34' E 025°05'4815.6
2014-Nov-25 06:27N 37°58' E 024°13'9 0.6
2014-Nov-24 16:32N 38°01' E 024°02'4915.0
2014-Nov-24 13:18N 37°40' E 024°57'1216.5
2014-Nov-24 12:33N 37°32' E 025°09'9 9.1
2014-Nov-24 11:33N 37°28' E 025°19'0 0.0
2014-Nov-24 10:33N 37°28' E 025°19'1312.8
2014-Nov-24 09:33N 37°34' E 025°05'4715.6
2014-Nov-24 06:33N 37°58' E 024°14'40 2.3
2014-Nov-23 13:13N 37°39' E 024°58'1116.6
2014-Nov-23 12:33N 37°32' E 025°09'9 9.0
2014-Nov-23 11:32N 37°28' E 025°19'0 0.1
2014-Nov-23 10:33N 37°28' E 025°19'1413.4
2014-Nov-23 09:29N 37°35' E 025°04'4615.7
2014-Nov-23 06:32N 37°58' E 024°13'10 2.3
2014-Nov-23 02:05N 38°01' E 024°01'0 0.0
2014-Nov-23 01:30N 38°01' E 024°01'0 0.0
2014-Nov-22 16:28N 38°01' E 024°01'2318.2
2014-Nov-22 15:14N 37°55' E 024°28'2213.2
2014-Nov-22 13:33N 37°43' E 024°52'1717.5
2014-Nov-22 12:34N 37°32' E 025°09'9 9.1
2014-Nov-22 11:33N 37°28' E 025°19'0 0.1
2014-Nov-22 10:34N 37°28' E 025°19'1413.8
2014-Nov-22 09:33N 37°34' E 025°04'4715.3
2014-Nov-22 06:31N 37°58' E 024°13'9 0.6
2014-Nov-21 16:29N 38°01' E 024°02'2318.7
2014-Nov-21 15:15N 37°54' E 024°31'2313.4
2014-Nov-21 13:29N 37°41' E 024°55'1415.2
2014-Nov-21 12:33N 37°32' E 025°09'9 9.1
2014-Nov-21 11:34N 37°28' E 025°19'2 2.4
2014-Nov-21 10:33N 37°29' E 025°17'1010.5
2014-Nov-21 09:33N 37°34' E 025°05'4715.5
2014-Nov-21 06:32N 37°58' E 024°14'10 0.7
2014-Nov-20 16:30N 38°01' E 024°02'1918.3
2014-Nov-20 15:28N 37°56' E 024°25'2713.5
2014-Nov-20 13:27N 37°42' E 024°54'1516.9
2014-Nov-20 12:33N 37°32' E 025°09'9 9.1
2014-Nov-20 11:33N 37°28' E 025°19'0 0.0
2014-Nov-20 10:33N 37°28' E 025°19'1211.9
2014-Nov-20 09:33N 37°33' E 025°06'58 3.4
2014-Nov-19 16:34N 38°01' E 024°02'1917.9
2014-Nov-19 15:31N 37°55' E 024°25'2613.2
2014-Nov-19 13:32N 37°43' E 024°54'1616.5
2014-Nov-19 12:33N 37°32' E 025°09'9 9.1
2014-Nov-19 11:33N 37°28' E 025°19'0 0.0
2014-Nov-19 10:33N 37°28' E 025°19'1313.1
2014-Nov-19 09:33N 37°34' E 025°05'5215.7
2014-Nov-19 06:14N 37°60' E 024°07'3 0.2
2014-Nov-18 16:32N 38°01' E 024°04'  

Dump ship's entire track history